createdAt,value
2022-11-27T00:00:59.894Z,100291.47
2022-11-27T00:03:28.040Z,100284.28
2022-11-27T00:05:58.549Z,100281.91
2022-11-27T00:08:25.662Z,100280.28
2022-11-27T00:10:53.287Z,100283.69
2022-11-27T00:13:20.632Z,100279.81
2022-11-27T00:15:47.833Z,100285.00
2022-11-27T00:18:15.240Z,100279.03
2022-11-27T00:20:42.342Z,100274.03
2022-11-27T00:23:09.452Z,100281.31
2022-11-27T00:25:36.807Z,100275.50
2022-11-27T00:28:03.935Z,100279.94
2022-11-27T00:30:31.048Z,100279.22
2022-11-27T00:32:58.424Z,100282.31
2022-11-27T00:35:25.548Z,100275.94
2022-11-27T00:37:52.665Z,100282.44
2022-11-27T00:40:20.148Z,100279.00
2022-11-27T00:42:47.258Z,100279.22
2022-11-27T00:45:14.344Z,100286.25
2022-11-27T00:47:41.742Z,100285.81
2022-11-27T00:50:08.985Z,100280.13
2022-11-27T00:52:36.088Z,100297.13
2022-11-27T00:55:03.734Z,100296.19
2022-11-27T00:57:30.839Z,100292.84
2022-11-27T00:59:57.950Z,100283.81
2022-11-27T01:02:25.332Z,100289.59
2022-11-27T01:04:52.518Z,100292.16
2022-11-27T01:07:19.685Z,100297.25
2022-11-27T01:09:47.073Z,100291.34
2022-11-27T01:12:14.180Z,100287.22
2022-11-27T01:14:41.506Z,100288.25
2022-11-27T01:17:09.073Z,100285.66
2022-11-27T01:19:37.197Z,100283.00
2022-11-27T01:22:04.292Z,100276.91
2022-11-27T01:24:31.684Z,100285.31
2022-11-27T01:26:58.775Z,100289.72
2022-11-27T01:29:25.896Z,100289.62
2022-11-27T01:31:53.283Z,100296.19
2022-11-27T01:34:20.403Z,100291.34
2022-11-27T01:36:47.501Z,100293.97
2022-11-27T01:39:16.119Z,100301.09
2022-11-27T01:41:43.344Z,100299.84
2022-11-27T01:44:25.639Z,100287.75
2022-11-27T01:46:54.001Z,100291.44
2022-11-27T01:49:25.215Z,100294.13
2022-11-27T01:51:52.579Z,100287.00
2022-11-27T01:54:20.346Z,100284.03
2022-11-27T01:56:48.960Z,100287.34
2022-11-27T01:59:16.696Z,100295.44
2022-11-27T02:01:43.857Z,100296.06
2022-11-27T02:04:11.260Z,100302.41
2022-11-27T02:06:38.621Z,100294.59
2022-11-27T02:09:05.730Z,100303.28
2022-11-27T02:11:37.677Z,100300.97
2022-11-27T02:14:10.915Z,100295.81
2022-11-27T02:16:50.168Z,100298.53
2022-11-27T02:19:37.743Z,100303.72
2022-11-27T02:22:23.672Z,100294.50
2022-11-27T02:25:10.008Z,100288.59
2022-11-27T02:27:56.821Z,100285.75
2022-11-27T02:30:24.192Z,100288.97
2022-11-27T02:32:57.642Z,100292.41
2022-11-27T02:35:36.661Z,100288.97
2022-11-27T02:38:07.766Z,100290.97
2022-11-27T02:40:51.889Z,100300.16
2022-11-27T02:43:20.919Z,100294.94
2022-11-27T02:45:48.918Z,100299.41
2022-11-27T02:48:16.782Z,100306.00
2022-11-27T02:50:44.742Z,100300.84
2022-11-27T02:53:16.161Z,100296.69
2022-11-27T02:55:43.270Z,100297.69
2022-11-27T02:58:11.176Z,100306.88
2022-11-27T03:00:38.605Z,100302.53
2022-11-27T03:03:06.032Z,100307.56
2022-11-27T03:05:34.076Z,100306.13
2022-11-27T03:08:05.879Z,100305.63
2022-11-27T03:10:34.530Z,100299.78
2022-11-27T03:13:02.723Z,100310.19
2022-11-27T03:15:31.362Z,100301.81
2022-11-27T03:18:01.070Z,100303.41
2022-11-27T03:20:32.289Z,100309.28
2022-11-27T03:22:59.386Z,100301.00
2022-11-27T03:25:26.490Z,100304.69
2022-11-27T03:27:58.551Z,100304.56
2022-11-27T03:30:25.673Z,100302.00
2022-11-27T03:32:52.765Z,100304.53
2022-11-27T03:35:21.334Z,100307.03
2022-11-27T03:37:48.420Z,100314.50
2022-11-27T03:40:15.590Z,100318.25
2022-11-27T03:42:49.362Z,100318.28
2022-11-27T03:45:33.871Z,100320.47
2022-11-27T03:48:01.183Z,100321.38
2022-11-27T03:50:54.796Z,100313.75
2022-11-27T03:53:25.597Z,100320.91
2022-11-27T03:55:55.680Z,100317.50
2022-11-27T03:58:40.273Z,100315.56
2022-11-27T04:01:09.052Z,100314.28
2022-11-27T04:03:36.718Z,100311.81
2022-11-27T04:06:03.943Z,100314.34
2022-11-27T04:08:31.044Z,100313.53
2022-11-27T04:10:58.431Z,100312.22
2022-11-27T04:13:25.537Z,100311.44
2022-11-27T04:15:52.732Z,100311.31
2022-11-27T04:18:20.161Z,100306.53
2022-11-27T04:20:47.275Z,100313.03
2022-11-27T04:23:15.165Z,100316.06
2022-11-27T04:25:42.521Z,100321.78
2022-11-27T04:28:09.648Z,100316.72
2022-11-27T04:30:36.762Z,100317.69
2022-11-27T04:33:04.117Z,100321.44
2022-11-27T04:35:31.234Z,100324.69
2022-11-27T04:37:58.370Z,100319.13
2022-11-27T04:40:25.760Z,100318.78
2022-11-27T04:42:53.528Z,100311.34
2022-11-27T04:45:20.648Z,100316.88
2022-11-27T04:47:48.027Z,100307.28
2022-11-27T04:50:15.156Z,100307.09
2022-11-27T04:52:42.298Z,100307.47
2022-11-27T04:55:10.935Z,100307.34
2022-11-27T04:57:38.048Z,100304.63
2022-11-27T05:00:05.801Z,100305.88
2022-11-27T05:02:33.215Z,100304.72
2022-11-27T05:05:00.330Z,100306.69
2022-11-27T05:07:27.555Z,100310.88
2022-11-27T05:09:54.974Z,100307.28
2022-11-27T05:12:22.079Z,100313.34
2022-11-27T05:14:49.190Z,100316.00
2022-11-27T05:17:16.560Z,100310.00
2022-11-27T05:19:43.777Z,100304.34
2022-11-27T05:22:10.877Z,100304.19
2022-11-27T05:24:38.488Z,100310.63
2022-11-27T05:27:05.791Z,100319.00
2022-11-27T05:29:32.962Z,100320.91
2022-11-27T05:32:00.321Z,100313.78
2022-11-27T05:34:27.413Z,100311.47
2022-11-27T05:36:54.976Z,100301.19
2022-11-27T05:39:22.341Z,100311.19
2022-11-27T05:41:49.462Z,100315.06
2022-11-27T05:44:16.590Z,100308.31
2022-11-27T05:46:44.092Z,100304.28
2022-11-27T05:49:12.677Z,100302.94
2022-11-27T05:51:39.959Z,100303.12
2022-11-27T05:54:07.442Z,100306.03
2022-11-27T05:56:34.546Z,100315.19
2022-11-27T05:59:02.030Z,100318.03
2022-11-27T06:01:29.404Z,100320.16
2022-11-27T06:03:56.788Z,100322.19
2022-11-27T06:06:23.998Z,100314.03
2022-11-27T06:08:51.106Z,100312.69
2022-11-27T06:11:19.485Z,100309.81
2022-11-27T06:13:46.797Z,100308.66
2022-11-27T06:16:17.913Z,100309.44
2022-11-27T06:18:45.377Z,100315.47
2022-11-27T06:21:13.457Z,100326.69
2022-11-27T06:23:41.227Z,100321.81
2022-11-27T06:26:12.320Z,100322.91
2022-11-27T06:28:39.755Z,100321.84
2022-11-27T06:31:08.121Z,100325.34
2022-11-27T06:33:37.425Z,100329.16
2022-11-27T06:36:04.722Z,100323.12
2022-11-27T06:38:32.677Z,100325.00
2022-11-27T06:41:06.816Z,100327.69
2022-11-27T06:43:34.282Z,100327.72
2022-11-27T06:46:02.162Z,100333.75
2022-11-27T06:48:29.674Z,100336.53
2022-11-27T06:51:05.901Z,100338.56
2022-11-27T06:53:33.981Z,100341.38
2022-11-27T06:56:04.305Z,100342.56
2022-11-27T06:58:31.620Z,100340.84
2022-11-27T07:00:59.446Z,100331.97
2022-11-27T07:03:26.791Z,100328.34
2022-11-27T07:05:53.962Z,100329.63
2022-11-27T07:08:22.280Z,100326.44
2022-11-27T07:10:49.397Z,100321.53
2022-11-27T07:13:16.476Z,100340.31
2022-11-27T07:15:43.855Z,100331.19
2022-11-27T07:18:11.268Z,100334.75
2022-11-27T07:20:38.391Z,100334.25
2022-11-27T07:23:05.805Z,100332.94
2022-11-27T07:25:32.927Z,100341.41
2022-11-27T07:28:00.103Z,100340.81
2022-11-27T07:30:27.511Z,100346.44
2022-11-27T07:32:54.648Z,100347.28
2022-11-27T07:35:21.756Z,100346.34
2022-11-27T07:37:49.112Z,100348.56
2022-11-27T07:40:18.217Z,100353.91
2022-11-27T07:42:45.412Z,100355.47
2022-11-27T07:45:12.792Z,100357.56
2022-11-27T07:47:39.893Z,100350.88
2022-11-27T07:50:08.341Z,100355.28
2022-11-27T07:52:41.080Z,100346.03
2022-11-27T07:55:09.274Z,100343.97
2022-11-27T07:57:36.644Z,100350.56
2022-11-27T08:00:04.208Z,100348.09
2022-11-27T08:02:31.499Z,100337.69
2022-11-27T08:04:58.937Z,100353.44
2022-11-27T08:07:29.406Z,100354.12
2022-11-27T08:09:58.298Z,100349.91
2022-11-27T08:12:25.802Z,100353.13
2022-11-27T08:14:52.895Z,100351.47
2022-11-27T08:17:20.569Z,100352.03
2022-11-27T08:19:47.932Z,100347.06
2022-11-27T08:22:15.545Z,100356.06
2022-11-27T08:24:42.924Z,100353.59
2022-11-27T08:27:10.584Z,100352.87
2022-11-27T08:29:38.010Z,100353.25
2022-11-27T08:32:05.331Z,100366.97
2022-11-27T08:34:32.774Z,100370.94
2022-11-27T08:36:59.881Z,100363.91
2022-11-27T08:39:27.387Z,100365.44
2022-11-27T08:41:54.750Z,100370.31
2022-11-27T08:44:21.861Z,100368.12
2022-11-27T08:46:49.014Z,100362.94
2022-11-27T08:49:16.385Z,100360.56
2022-11-27T08:51:43.496Z,100364.69
2022-11-27T08:54:10.596Z,100360.16
2022-11-27T08:56:37.981Z,100368.91
2022-11-27T08:59:05.077Z,100377.25
2022-11-27T09:01:32.445Z,100376.63
2022-11-27T09:03:59.961Z,100381.53
2022-11-27T09:06:28.383Z,100382.47
2022-11-27T09:08:55.921Z,100390.41
2022-11-27T09:11:23.345Z,100384.69
2022-11-27T09:13:50.458Z,100394.62
2022-11-27T09:16:18.224Z,100399.97
2022-11-27T09:18:46.041Z,100400.44
2022-11-27T09:21:13.372Z,100388.66
2022-11-27T09:23:40.478Z,100399.34
2022-11-27T09:26:09.239Z,100389.13
2022-11-27T09:28:36.559Z,100390.91
2022-11-27T09:31:04.301Z,100384.91
2022-11-27T09:33:32.347Z,100391.31
2022-11-27T09:36:03.097Z,100386.28
2022-11-27T09:38:30.203Z,100374.41
2022-11-27T09:41:02.982Z,100375.53
2022-11-27T09:43:31.327Z,100377.75
2022-11-27T09:46:01.187Z,100375.06
2022-11-27T09:48:31.541Z,100382.03
2022-11-27T09:50:59.655Z,100383.41
2022-11-27T09:53:31.717Z,100385.06
2022-11-27T09:55:59.097Z,100376.44
2022-11-27T09:58:29.301Z,100367.56
2022-11-27T10:00:56.643Z,100372.47
2022-11-27T10:03:27.235Z,100369.03
2022-11-27T10:06:01.235Z,100363.63
2022-11-27T10:08:47.491Z,100358.91
2022-11-27T10:11:23.579Z,100348.56
2022-11-27T10:13:50.872Z,100358.66
2022-11-27T10:16:23.714Z,100350.47
2022-11-27T10:18:55.314Z,100351.91
2022-11-27T10:21:26.113Z,100348.41
2022-11-27T10:23:58.868Z,100340.97
2022-11-27T10:26:34.336Z,100343.94
2022-11-27T10:29:09.585Z,100342.19
2022-11-27T10:31:49.663Z,100341.25
2022-11-27T10:34:28.269Z,100338.16
2022-11-27T10:36:55.385Z,100341.25
2022-11-27T10:39:25.144Z,100343.47
2022-11-27T10:41:53.926Z,100340.16
2022-11-27T10:44:28.686Z,100341.84
2022-11-27T10:46:57.936Z,100329.06
2022-11-27T10:49:25.038Z,100329.81
2022-11-27T10:51:52.172Z,100326.25
2022-11-27T10:54:23.861Z,100328.69
2022-11-27T10:57:09.924Z,100326.19
2022-11-27T10:59:38.077Z,100327.75
2022-11-27T11:02:07.507Z,100315.50
2022-11-27T11:04:37.924Z,100306.41
2022-11-27T11:07:19.165Z,100307.22
2022-11-27T11:09:47.017Z,100303.19
2022-11-27T11:12:20.395Z,100307.44
2022-11-27T11:14:51.868Z,100307.09
2022-11-27T11:17:22.987Z,100302.84
2022-11-27T11:19:50.223Z,100292.34
2022-11-27T11:22:17.347Z,100298.19
2022-11-27T11:24:47.903Z,100298.28
2022-11-27T11:27:18.053Z,100281.84
2022-11-27T11:29:52.240Z,100282.88
2022-11-27T11:32:22.316Z,100274.84
2022-11-27T11:35:09.901Z,100283.63
2022-11-27T11:37:40.324Z,100278.94
2022-11-27T11:40:16.270Z,100271.78
2022-11-27T11:42:58.833Z,100269.25
2022-11-27T11:45:30.018Z,100267.84
2022-11-27T11:48:17.875Z,100263.47
2022-11-27T11:50:46.740Z,100258.88
2022-11-27T11:53:32.669Z,100262.50
2022-11-27T11:56:18.915Z,100262.69
2022-11-27T11:58:50.117Z,100265.25
2022-11-27T12:01:27.197Z,100260.31
2022-11-27T12:04:13.901Z,100260.06
2022-11-27T12:06:51.372Z,100251.41
2022-11-27T12:09:27.845Z,100250.37
2022-11-27T12:11:57.652Z,100249.81
2022-11-27T12:14:45.314Z,100253.13
2022-11-27T12:17:15.216Z,100259.66
2022-11-27T12:20:08.855Z,100254.44
2022-11-27T12:22:37.635Z,100250.41
2022-11-27T12:25:06.526Z,100249.44
2022-11-27T12:27:39.935Z,100244.44
2022-11-27T12:30:07.402Z,100247.78
2022-11-27T12:32:43.824Z,100247.53
2022-11-27T12:35:17.474Z,100242.41
2022-11-27T12:37:54.377Z,100247.25
2022-11-27T12:40:40.563Z,100247.22
2022-11-27T12:43:13.433Z,100236.72
2022-11-27T12:45:40.789Z,100233.44
2022-11-27T12:48:21.706Z,100232.00
2022-11-27T12:50:51.058Z,100231.53
2022-11-27T12:53:30.918Z,100234.78
2022-11-27T12:56:03.801Z,100235.03
2022-11-27T12:58:35.825Z,100240.87
2022-11-27T13:01:18.799Z,100229.22
2022-11-27T13:04:09.502Z,100232.16
2022-11-27T13:06:40.702Z,100226.59
2022-11-27T13:09:16.278Z,100234.66
2022-11-27T13:11:43.937Z,100223.47
2022-11-27T13:14:19.078Z,100225.59
2022-11-27T13:16:47.696Z,100222.97
2022-11-27T13:19:24.524Z,100229.44
2022-11-27T13:21:54.442Z,100223.31
2022-11-27T13:24:21.737Z,100220.47
2022-11-27T13:27:09.641Z,100224.16
2022-11-27T13:29:44.213Z,100219.00
2022-11-27T13:32:18.165Z,100222.50
2022-11-27T13:34:46.668Z,100211.66
2022-11-27T13:37:29.625Z,100226.50
2022-11-27T13:40:05.819Z,100228.00
2022-11-27T13:42:36.842Z,100217.22
2022-11-27T13:45:10.043Z,100222.16
2022-11-27T13:47:41.050Z,100223.06
2022-11-27T13:50:12.268Z,100223.22
2022-11-27T13:52:50.561Z,100222.44
2022-11-27T13:55:26.070Z,100217.22
2022-11-27T13:57:54.731Z,100207.19
2022-11-27T14:00:51.482Z,100212.34
2022-11-27T14:03:27.312Z,100220.00
2022-11-27T14:05:54.725Z,100214.06
2022-11-27T14:08:29.939Z,100212.88
2022-11-27T14:10:57.752Z,100214.28
2022-11-27T14:13:42.176Z,100212.25
2022-11-27T14:16:31.173Z,100214.41
2022-11-27T14:18:59.705Z,100226.03
2022-11-27T14:21:39.066Z,100222.91
2022-11-27T14:24:26.010Z,100226.63
2022-11-27T14:26:54.105Z,100228.72
2022-11-27T14:29:21.939Z,100218.22
2022-11-27T14:31:58.959Z,100217.53
2022-11-27T14:34:31.071Z,100228.72
2022-11-27T14:36:58.612Z,100222.25
2022-11-27T14:39:35.073Z,100226.53
2022-11-27T14:42:03.405Z,100226.91
2022-11-27T14:44:30.786Z,100225.84
2022-11-27T14:46:59.229Z,100227.97
2022-11-27T14:49:27.637Z,100223.59
2022-11-27T14:52:02.235Z,100225.50
2022-11-27T14:54:31.747Z,100240.56
2022-11-27T14:56:59.035Z,100237.22
2022-11-27T14:59:26.323Z,100237.75
2022-11-27T15:02:01.609Z,100234.28
2022-11-27T15:04:35.990Z,100241.06
2022-11-27T15:07:06.971Z,100249.06
2022-11-27T15:09:34.362Z,100248.69
2022-11-27T15:12:14.091Z,100245.59
2022-11-27T15:14:44.896Z,100246.16
2022-11-27T15:17:16.394Z,100251.22
2022-11-27T15:19:43.999Z,100241.59
2022-11-27T15:22:15.844Z,100247.63
2022-11-27T15:24:43.121Z,100251.06
2022-11-27T15:27:21.019Z,100245.34
2022-11-27T15:29:51.232Z,100240.56
2022-11-27T15:32:23.995Z,100255.84
2022-11-27T15:34:55.560Z,100246.59
2022-11-27T15:37:34.404Z,100248.00
2022-11-27T15:40:02.754Z,100244.44
2022-11-27T15:42:30.680Z,100247.94
2022-11-27T15:44:58.016Z,100255.03
2022-11-27T15:47:28.908Z,100249.63
2022-11-27T15:49:56.325Z,100251.28
2022-11-27T15:52:25.248Z,100249.16
2022-11-27T15:54:52.745Z,100247.50
2022-11-27T15:57:21.624Z,100251.06
2022-11-27T15:59:48.918Z,100252.34
2022-11-27T16:02:18.357Z,100247.47
2022-11-27T16:04:46.716Z,100242.47
2022-11-27T16:07:14.207Z,100247.13
2022-11-27T16:09:47.204Z,100237.28
2022-11-27T16:12:15.069Z,100237.81
2022-11-27T16:14:43.018Z,100245.00
2022-11-27T16:17:10.879Z,100230.78
2022-11-27T16:19:38.504Z,100231.75
2022-11-27T16:22:05.892Z,100237.44
2022-11-27T16:24:33.368Z,100234.00
2022-11-27T16:27:01.138Z,100224.66
2022-11-27T16:29:28.671Z,100223.13
2022-11-27T16:31:57.856Z,100221.34
2022-11-27T16:34:27.759Z,100225.94
2022-11-27T16:36:55.217Z,100225.12
2022-11-27T16:39:22.550Z,100224.66
2022-11-27T16:41:51.136Z,100215.41
2022-11-27T16:44:18.871Z,100225.50
2022-11-27T16:46:46.450Z,100223.72
2022-11-27T16:49:14.019Z,100219.72
2022-11-27T16:51:41.500Z,100218.88
2022-11-27T16:54:13.219Z,100220.16
2022-11-27T16:56:44.161Z,100211.81
2022-11-27T16:59:12.455Z,100206.97
2022-11-27T17:01:41.357Z,100204.94
2022-11-27T17:04:11.319Z,100216.59
2022-11-27T17:06:40.037Z,100212.50
2022-11-27T17:09:07.703Z,100205.91
2022-11-27T17:11:37.373Z,100217.97
2022-11-27T17:14:07.435Z,100214.34
2022-11-27T17:16:35.947Z,100212.44
2022-11-27T17:19:04.130Z,100208.59
2022-11-27T17:21:32.777Z,100200.22
2022-11-27T17:24:02.301Z,100195.94
2022-11-27T17:26:32.778Z,100198.31
2022-11-27T17:29:02.177Z,100190.59
2022-11-27T17:31:33.074Z,100196.47
2022-11-27T17:34:01.617Z,100190.19
2022-11-27T17:36:36.466Z,100189.63
2022-11-27T17:39:05.212Z,100186.16
2022-11-27T17:41:32.979Z,100186.50
2022-11-27T17:44:00.720Z,100190.13
2022-11-27T17:46:29.135Z,100185.28
2022-11-27T17:48:59.099Z,100181.38
2022-11-27T17:51:27.341Z,100171.00
2022-11-27T17:53:55.707Z,100171.72
2022-11-27T17:56:23.745Z,100170.97
2022-11-27T17:58:51.749Z,100169.53
2022-11-27T18:01:23.622Z,100161.47
2022-11-27T18:03:52.052Z,100161.19
2022-11-27T18:06:20.015Z,100158.28
2022-11-27T18:08:47.971Z,100152.00
2022-11-27T18:11:17.511Z,100158.63
2022-11-27T18:13:46.998Z,100158.78
2022-11-27T18:16:22.295Z,100156.75
2022-11-27T18:18:50.588Z,100154.12
2022-11-27T18:21:19.104Z,100161.91
2022-11-27T18:24:21.822Z,100161.34
2022-11-27T18:29:23.299Z,100162.94
2022-11-27T18:31:52.325Z,100153.34
2022-11-27T18:34:20.097Z,100158.69
2022-11-27T18:36:47.458Z,100161.03
2022-11-27T18:39:16.045Z,100153.09
2022-11-27T18:41:43.853Z,100148.84
2022-11-27T18:44:11.682Z,100139.91
2022-11-27T18:46:39.883Z,100134.38
2022-11-27T18:49:08.536Z,100144.12
2022-11-27T18:51:36.992Z,100143.38
2022-11-27T18:54:05.076Z,100146.47
2022-11-27T18:56:32.947Z,100138.72
2022-11-27T18:59:01.332Z,100150.22
2022-11-27T19:01:30.032Z,100143.69
2022-11-27T19:04:00.268Z,100140.28
2022-11-27T19:06:30.244Z,100147.94
2022-11-27T19:08:58.795Z,100142.00
2022-11-27T19:11:29.012Z,100134.78
2022-11-27T19:13:57.742Z,100150.72
2022-11-27T19:16:26.959Z,100138.75
2022-11-27T19:18:57.655Z,100145.19
2022-11-27T19:21:26.056Z,100145.56
2022-11-27T19:23:54.754Z,100153.44
2022-11-27T19:26:24.902Z,100137.06
2022-11-27T19:28:54.190Z,100141.41
2022-11-27T19:31:24.209Z,100146.38
2022-11-27T19:33:54.138Z,100146.03
2022-11-27T19:36:23.954Z,100146.97
2022-11-27T19:38:56.324Z,100148.94
2022-11-27T19:41:24.613Z,100154.19
2022-11-27T19:43:52.155Z,100147.53
2022-11-27T19:46:22.419Z,100153.13
2022-11-27T19:48:50.840Z,100148.56
2022-11-27T19:51:24.846Z,100151.00
2022-11-27T19:53:53.725Z,100150.59
2022-11-27T19:56:21.989Z,100144.38
2022-11-27T19:58:49.422Z,100145.75
2022-11-27T20:01:18.654Z,100134.84
2022-11-27T20:03:48.178Z,100132.03
2022-11-27T20:06:16.947Z,100128.63
2022-11-27T20:08:46.064Z,100130.59
2022-11-27T20:11:14.937Z,100123.97
2022-11-27T20:13:42.630Z,100135.28
2022-11-27T20:16:15.991Z,100130.16
2022-11-27T20:18:45.040Z,100144.38
2022-11-27T20:21:14.904Z,100123.16
2022-11-27T20:23:43.796Z,100126.22
2022-11-27T20:26:16.478Z,100127.72
2022-11-27T20:28:44.071Z,100128.59
2022-11-27T20:31:16.053Z,100128.59
2022-11-27T20:33:43.940Z,100131.41
2022-11-27T20:36:12.599Z,100123.88
2022-11-27T20:38:41.525Z,100108.59
2022-11-27T20:41:13.135Z,100115.88
2022-11-27T20:43:42.282Z,100108.97
2022-11-27T20:46:12.645Z,100111.87
2022-11-27T20:48:40.315Z,100115.91
2022-11-27T20:51:09.530Z,100112.78
2022-11-27T20:53:37.096Z,100099.69
2022-11-27T20:56:05.602Z,100110.84
2022-11-27T20:58:40.063Z,100121.50
2022-11-27T21:01:15.701Z,100120.19
2022-11-27T21:03:43.847Z,100109.53
2022-11-27T21:06:15.099Z,100107.75
2022-11-27T21:08:43.613Z,100115.78
2022-11-27T21:11:12.086Z,100107.66
2022-11-27T21:13:39.862Z,100108.94
2022-11-27T21:16:09.650Z,100105.13
2022-11-27T21:18:37.062Z,100108.69
2022-11-27T21:21:08.685Z,100109.47
2022-11-27T21:23:36.474Z,100101.84
2022-11-27T21:26:04.098Z,100105.06
2022-11-27T21:28:31.862Z,100096.69
2022-11-27T21:31:06.373Z,100091.84
2022-11-27T21:33:33.898Z,100101.31
2022-11-27T21:36:01.403Z,100087.66
2022-11-27T21:38:28.543Z,100096.56
2022-11-27T21:40:56.211Z,100099.69
2022-11-27T21:43:23.792Z,100099.88
2022-11-27T21:45:51.125Z,100102.25
2022-11-27T21:48:18.411Z,100092.25
2022-11-27T21:50:45.792Z,100087.53
2022-11-27T21:53:12.928Z,100092.88
2022-11-27T21:55:40.884Z,100089.22
2022-11-27T21:58:09.470Z,100088.47
2022-11-27T22:00:36.817Z,100091.06
2022-11-27T22:03:04.235Z,100085.53
2022-11-27T22:05:31.367Z,100096.38
2022-11-27T22:10:43.174Z,100081.97
2022-11-27T22:13:10.968Z,100093.09
2022-11-27T22:15:39.498Z,100095.78
2022-11-27T22:18:06.938Z,100093.19
2022-11-27T22:20:34.843Z,100084.84
2022-11-27T22:23:02.283Z,100083.91
2022-11-27T22:25:30.064Z,100078.50
2022-11-27T22:27:57.380Z,100078.72
2022-11-27T22:30:25.636Z,100071.25
2022-11-27T22:32:53.488Z,100074.16
2022-11-27T22:35:21.103Z,100079.81
2022-11-27T22:37:48.299Z,100070.97
2022-11-27T22:40:15.729Z,100071.00
2022-11-27T22:42:42.869Z,100064.00
2022-11-27T22:45:10.137Z,100066.19
2022-11-27T22:47:37.518Z,100063.38
2022-11-27T22:50:04.895Z,100064.66
2022-11-27T22:52:32.091Z,100059.44
2022-11-27T22:54:59.516Z,100060.97
2022-11-27T22:57:26.642Z,100065.97
2022-11-27T22:59:53.794Z,100065.78
2022-11-27T23:02:21.228Z,100059.91
2022-11-27T23:04:48.439Z,100056.22
2022-11-27T23:07:17.022Z,100047.78
2022-11-27T23:09:48.106Z,100052.34
2022-11-27T23:12:15.213Z,100053.47
2022-11-27T23:14:42.566Z,100040.16
2022-11-27T23:17:10.124Z,100048.53
2022-11-27T23:19:39.842Z,100044.06
2022-11-27T23:22:06.954Z,100044.37
2022-11-27T23:24:34.327Z,100033.22
2022-11-27T23:27:01.463Z,100033.78
2022-11-27T23:29:31.139Z,100027.84
2022-11-27T23:31:58.708Z,100023.63
2022-11-27T23:34:25.866Z,100010.97
2022-11-27T23:36:52.978Z,100012.06
2022-11-27T23:39:20.346Z,100014.03
2022-11-27T23:41:49.541Z,100002.81
2022-11-27T23:44:16.759Z,99992.34
2022-11-27T23:46:44.116Z,99998.16
2022-11-27T23:49:11.228Z,99995.78
2022-11-27T23:51:38.359Z,99991.13
2022-11-27T23:54:06.749Z,100000.03
2022-11-27T23:56:33.970Z,99997.28
2022-11-27T23:59:01.085Z,100003.97
